sensor_id;sensor_type;location;lat;lon;timestamp;P1;durP1;ratioP1;P2;durP2;ratioP2
59970;SDS011;45825;45.434;9.116;2023-11-18T00:01:49;1.95;;;1.00;;
59970;SDS011;45825;45.434;9.116;2023-11-18T00:04:15;1.88;;;0.80;;
59970;SDS011;45825;45.434;9.116;2023-11-18T00:06:43;1.98;;;1.00;;
59970;SDS011;45825;45.434;9.116;2023-11-18T00:09:09;1.92;;;1.15;;
59970;SDS011;45825;45.434;9.116;2023-11-18T00:11:40;3.05;;;1.10;;
59970;SDS011;45825;45.434;9.116;2023-11-18T00:14:06;3.42;;;1.20;;
59970;SDS011;45825;45.434;9.116;2023-11-18T00:16:32;2.97;;;1.10;;
59970;SDS011;45825;45.434;9.116;2023-11-18T00:18:57;2.55;;;1.02;;
59970;SDS011;45825;45.434;9.116;2023-11-18T00:21:26;3.53;;;1.15;;
59970;SDS011;45825;45.434;9.116;2023-11-18T00:23:52;3.38;;;1.20;;
59970;SDS011;45825;45.434;9.116;2023-11-18T00:26:18;4.72;;;1.17;;
59970;SDS011;45825;45.434;9.116;2023-11-18T00:28:43;3.25;;;1.10;;
59970;SDS011;45825;45.434;9.116;2023-11-18T00:31:09;2.83;;;1.10;;
59970;SDS011;45825;45.434;9.116;2023-11-18T00:33:34;2.45;;;1.00;;
59970;SDS011;45825;45.434;9.116;2023-11-18T00:35:59;1.70;;;0.95;;
59970;SDS011;45825;45.434;9.116;2023-11-18T00:38:25;1.65;;;0.90;;
59970;SDS011;45825;45.434;9.116;2023-11-18T00:40:51;1.77;;;0.88;;
59970;SDS011;45825;45.434;9.116;2023-11-18T00:43:16;3.63;;;1.00;;
59970;SDS011;45825;45.434;9.116;2023-11-18T00:45:42;3.35;;;0.93;;
59970;SDS011;45825;45.434;9.116;2023-11-18T00:48:08;1.92;;;0.98;;
59970;SDS011;45825;45.434;9.116;2023-11-18T00:50:34;4.32;;;1.15;;
59970;SDS011;45825;45.434;9.116;2023-11-18T00:52:59;2.47;;;1.10;;
59970;SDS011;45825;45.434;9.116;2023-11-18T00:55:25;3.13;;;1.50;;
59970;SDS011;45825;45.434;9.116;2023-11-18T00:57:50;1.85;;;1.00;;
59970;SDS011;45825;45.434;9.116;2023-11-18T01:00:15;1.83;;;0.90;;
59970;SDS011;45825;45.434;9.116;2023-11-18T01:02:44;2.70;;;1.20;;
59970;SDS011;45825;45.434;9.116;2023-11-18T01:05:10;2.72;;;0.98;;
59970;SDS011;45825;45.434;9.116;2023-11-18T01:07:36;3.42;;;1.13;;
59970;SDS011;45825;45.434;9.116;2023-11-18T01:10:05;2.47;;;1.27;;
59970;SDS011;45825;45.434;9.116;2023-11-18T01:12:32;3.30;;;1.00;;
59970;SDS011;45825;45.434;9.116;2023-11-18T01:14:57;2.65;;;1.00;;
59970;SDS011;45825;45.434;9.116;2023-11-18T01:17:23;4.32;;;1.13;;
59970;SDS011;45825;45.434;9.116;2023-11-18T01:19:49;3.03;;;1.27;;
59970;SDS011;45825;45.434;9.116;2023-11-18T01:22:14;3.42;;;1.17;;
59970;SDS011;45825;45.434;9.116;2023-11-18T01:24:40;4.45;;;1.73;;
59970;SDS011;45825;45.434;9.116;2023-11-18T01:27:05;4.15;;;1.85;;
59970;SDS011;45825;45.434;9.116;2023-11-18T01:29:34;4.35;;;1.70;;
59970;SDS011;45825;45.434;9.116;2023-11-18T01:32:00;4.57;;;1.55;;
59970;SDS011;45825;45.434;9.116;2023-11-18T01:34:25;4.95;;;1.63;;
59970;SDS011;45825;45.434;9.116;2023-11-18T01:36:53;4.65;;;1.50;;
59970;SDS011;45825;45.434;9.116;2023-11-18T01:39:18;3.45;;;1.45;;
59970;SDS011;45825;45.434;9.116;2023-11-18T01:41:44;2.22;;;1.20;;
59970;SDS011;45825;45.434;9.116;2023-11-18T01:44:10;2.83;;;1.35;;
59970;SDS011;45825;45.434;9.116;2023-11-18T01:46:38;2.60;;;1.35;;
59970;SDS011;45825;45.434;9.116;2023-11-18T01:49:05;3.38;;;1.40;;
59970;SDS011;45825;45.434;9.116;2023-11-18T01:51:32;2.35;;;1.30;;
59970;SDS011;45825;45.434;9.116;2023-11-18T01:54:00;3.03;;;1.40;;
59970;SDS011;45825;45.434;9.116;2023-11-18T01:56:27;3.13;;;1.20;;
59970;SDS011;45825;45.434;9.116;2023-11-18T01:58:52;2.28;;;1.30;;
59970;SDS011;45825;45.434;9.116;2023-11-18T02:01:18;4.25;;;1.13;;
59970;SDS011;45825;45.434;9.116;2023-11-18T02:03:44;2.65;;;1.20;;
59970;SDS011;45825;45.434;9.116;2023-11-18T02:06:10;3.97;;;1.27;;
59970;SDS011;45825;45.434;9.116;2023-11-18T02:08:38;2.40;;;1.40;;
59970;SDS011;45825;45.434;9.116;2023-11-18T02:14:06;2.55;;;1.30;;
59970;SDS011;45825;45.434;9.116;2023-11-18T02:16:36;3.45;;;1.60;;
59970;SDS011;45825;45.434;9.116;2023-11-18T02:19:03;2.97;;;1.35;;
59970;SDS011;45825;45.434;9.116;2023-11-18T02:21:34;2.25;;;1.30;;
59970;SDS011;45825;45.434;9.116;2023-11-18T02:24:02;2.10;;;1.20;;
59970;SDS011;45825;45.434;9.116;2023-11-18T02:26:29;3.03;;;1.40;;
59970;SDS011;45825;45.434;9.116;2023-11-18T02:28:55;2.33;;;1.20;;
59970;SDS011;45825;45.434;9.116;2023-11-18T02:31:22;2.78;;;1.42;;
59970;SDS011;45825;45.434;9.116;2023-11-18T02:34:00;2.50;;;1.33;;
59970;SDS011;45825;45.434;9.116;2023-11-18T02:36:32;3.17;;;1.40;;
59970;SDS011;45825;45.434;9.116;2023-11-18T02:39:04;3.03;;;1.48;;
59970;SDS011;45825;45.434;9.116;2023-11-18T02:41:34;2.80;;;1.40;;
59970;SDS011;45825;45.434;9.116;2023-11-18T02:44:01;3.92;;;1.60;;
59970;SDS011;45825;45.434;9.116;2023-11-18T02:46:33;3.08;;;1.40;;
59970;SDS011;45825;45.434;9.116;2023-11-18T02:48:59;6.55;;;2.20;;
59970;SDS011;45825;45.434;9.116;2023-11-18T02:51:25;4.15;;;1.70;;
59970;SDS011;45825;45.434;9.116;2023-11-18T02:53:51;5.20;;;1.83;;
59970;SDS011;45825;45.434;9.116;2023-11-18T02:56:16;5.35;;;1.65;;
59970;SDS011;45825;45.434;9.116;2023-11-18T02:58:43;5.68;;;1.95;;
59970;SDS011;45825;45.434;9.116;2023-11-18T03:01:09;5.03;;;2.22;;
59970;SDS011;45825;45.434;9.116;2023-11-18T03:03:34;4.95;;;1.90;;
59970;SDS011;45825;45.434;9.116;2023-11-18T03:06:00;4.78;;;1.77;;
59970;SDS011;45825;45.434;9.116;2023-11-18T03:08:25;5.32;;;2.13;;
59970;SDS011;45825;45.434;9.116;2023-11-18T03:10:53;6.03;;;2.00;;
59970;SDS011;45825;45.434;9.116;2023-11-18T03:13:19;7.40;;;2.40;;
59970;SDS011;45825;45.434;9.116;2023-11-18T03:15:44;6.30;;;2.38;;
59970;SDS011;45825;45.434;9.116;2023-11-18T03:18:12;5.22;;;2.03;;
59970;SDS011;45825;45.434;9.116;2023-11-18T03:20:37;4.85;;;2.15;;
59970;SDS011;45825;45.434;9.116;2023-11-18T03:23:03;6.32;;;2.22;;
59970;SDS011;45825;45.434;9.116;2023-11-18T03:25:30;5.20;;;2.20;;
59970;SDS011;45825;45.434;9.116;2023-11-18T03:27:55;7.75;;;2.40;;
59970;SDS011;45825;45.434;9.116;2023-11-18T03:30:20;6.20;;;2.08;;
59970;SDS011;45825;45.434;9.116;2023-11-18T03:32:46;4.05;;;1.90;;
59970;SDS011;45825;45.434;9.116;2023-11-18T03:35:11;6.07;;;2.28;;
59970;SDS011;45825;45.434;9.116;2023-11-18T03:37:40;4.03;;;2.00;;
59970;SDS011;45825;45.434;9.116;2023-11-18T03:40:07;5.22;;;2.40;;
59970;SDS011;45825;45.434;9.116;2023-11-18T03:42:41;6.85;;;2.13;;
59970;SDS011;45825;45.434;9.116;2023-11-18T03:45:07;5.40;;;2.13;;
59970;SDS011;45825;45.434;9.116;2023-11-18T03:47:34;6.85;;;2.28;;
59970;SDS011;45825;45.434;9.116;2023-11-18T03:50:00;5.68;;;2.10;;
59970;SDS011;45825;45.434;9.116;2023-11-18T03:52:26;7.18;;;3.03;;
59970;SDS011;45825;45.434;9.116;2023-11-18T03:54:52;7.18;;;2.78;;
59970;SDS011;45825;45.434;9.116;2023-11-18T03:57:18;5.63;;;2.40;;
59970;SDS011;45825;45.434;9.116;2023-11-18T03:59:43;5.97;;;2.60;;
59970;SDS011;45825;45.434;9.116;2023-11-18T04:02:09;6.10;;;2.60;;
59970;SDS011;45825;45.434;9.116;2023-11-18T04:04:36;5.95;;;2.60;;
59970;SDS011;45825;45.434;9.116;2023-11-18T04:07:04;6.50;;;3.00;;
59970;SDS011;45825;45.434;9.116;2023-11-18T04:09:31;10.35;;;2.97;;
59970;SDS011;45825;45.434;9.116;2023-11-18T04:11:56;9.10;;;3.10;;
59970;SDS011;45825;45.434;9.116;2023-11-18T04:14:23;5.90;;;2.60;;
59970;SDS011;45825;45.434;9.116;2023-11-18T04:16:49;6.85;;;2.72;;
59970;SDS011;45825;45.434;9.116;2023-11-18T04:19:15;8.63;;;3.08;;
59970;SDS011;45825;45.434;9.116;2023-11-18T04:21:40;8.07;;;2.80;;
59970;SDS011;45825;45.434;9.116;2023-11-18T04:24:06;7.65;;;3.78;;
59970;SDS011;45825;45.434;9.116;2023-11-18T04:26:32;6.80;;;3.08;;
59970;SDS011;45825;45.434;9.116;2023-11-18T04:28:57;8.57;;;2.80;;
59970;SDS011;45825;45.434;9.116;2023-11-18T04:31:23;7.30;;;3.10;;
59970;SDS011;45825;45.434;9.116;2023-11-18T04:33:50;8.05;;;3.13;;
59970;SDS011;45825;45.434;9.116;2023-11-18T04:36:15;6.60;;;2.70;;
59970;SDS011;45825;45.434;9.116;2023-11-18T04:38:41;8.82;;;3.00;;
59970;SDS011;45825;45.434;9.116;2023-11-18T04:41:07;7.88;;;3.65;;
59970;SDS011;45825;45.434;9.116;2023-11-18T04:43:32;8.27;;;3.78;;
59970;SDS011;45825;45.434;9.116;2023-11-18T04:45:58;7.03;;;3.00;;
59970;SDS011;45825;45.434;9.116;2023-11-18T04:48:24;7.85;;;2.88;;
59970;SDS011;45825;45.434;9.116;2023-11-18T04:50:49;12.00;;;7.65;;
59970;SDS011;45825;45.434;9.116;2023-11-18T04:53:15;7.43;;;3.28;;
59970;SDS011;45825;45.434;9.116;2023-11-18T04:55:40;5.03;;;2.95;;
59970;SDS011;45825;45.434;9.116;2023-11-18T04:58:05;7.07;;;3.05;;
59970;SDS011;45825;45.434;9.116;2023-11-18T05:00:35;5.88;;;2.58;;
59970;SDS011;45825;45.434;9.116;2023-11-18T05:03:03;6.80;;;2.92;;
59970;SDS011;45825;45.434;9.116;2023-11-18T05:05:28;5.10;;;2.60;;
59970;SDS011;45825;45.434;9.116;2023-11-18T05:07:54;5.60;;;2.63;;
59970;SDS011;45825;45.434;9.116;2023-11-18T05:10:19;6.40;;;2.72;;
59970;SDS011;45825;45.434;9.116;2023-11-18T05:12:44;7.20;;;3.40;;
59970;SDS011;45825;45.434;9.116;2023-11-18T05:15:10;5.10;;;2.53;;
59970;SDS011;45825;45.434;9.116;2023-11-18T05:17:35;6.80;;;2.83;;
59970;SDS011;45825;45.434;9.116;2023-11-18T05:20:02;6.43;;;2.83;;
59970;SDS011;45825;45.434;9.116;2023-11-18T05:22:28;6.68;;;2.95;;
59970;SDS011;45825;45.434;9.116;2023-11-18T05:24:54;6.65;;;2.90;;
59970;SDS011;45825;45.434;9.116;2023-11-18T05:27:19;4.82;;;2.53;;
59970;SDS011;45825;45.434;9.116;2023-11-18T05:29:44;6.32;;;3.05;;
59970;SDS011;45825;45.434;9.116;2023-11-18T05:32:19;8.20;;;2.90;;
59970;SDS011;45825;45.434;9.116;2023-11-18T05:34:45;6.10;;;3.00;;
59970;SDS011;45825;45.434;9.116;2023-11-18T05:37:11;5.53;;;2.60;;
59970;SDS011;45825;45.434;9.116;2023-11-18T05:39:36;5.43;;;2.97;;
59970;SDS011;45825;45.434;9.116;2023-11-18T05:42:08;7.72;;;2.95;;
59970;SDS011;45825;45.434;9.116;2023-11-18T05:44:35;7.90;;;2.90;;
59970;SDS011;45825;45.434;9.116;2023-11-18T05:47:02;7.13;;;2.80;;
59970;SDS011;45825;45.434;9.116;2023-11-18T05:49:28;5.05;;;2.45;;
59970;SDS011;45825;45.434;9.116;2023-11-18T05:51:53;6.13;;;2.70;;
59970;SDS011;45825;45.434;9.116;2023-11-18T05:54:19;7.60;;;2.47;;
59970;SDS011;45825;45.434;9.116;2023-11-18T05:56:44;5.80;;;2.33;;
59970;SDS011;45825;45.434;9.116;2023-11-18T05:59:09;8.95;;;2.40;;
59970;SDS011;45825;45.434;9.116;2023-11-18T06:01:36;8.43;;;2.50;;
59970;SDS011;45825;45.434;9.116;2023-11-18T06:04:02;5.35;;;2.15;;
59970;SDS011;45825;45.434;9.116;2023-11-18T06:06:28;4.43;;;2.13;;
59970;SDS011;45825;45.434;9.116;2023-11-18T06:08:54;4.63;;;2.00;;
59970;SDS011;45825;45.434;9.116;2023-11-18T06:11:19;6.50;;;2.60;;
59970;SDS011;45825;45.434;9.116;2023-11-18T06:13:48;4.65;;;2.20;;
59970;SDS011;45825;45.434;9.116;2023-11-18T06:16:15;5.15;;;2.40;;
59970;SDS011;45825;45.434;9.116;2023-11-18T06:18:45;5.13;;;2.35;;
59970;SDS011;45825;45.434;9.116;2023-11-18T06:21:11;8.63;;;2.35;;
59970;SDS011;45825;45.434;9.116;2023-11-18T06:23:41;4.75;;;2.10;;
59970;SDS011;45825;45.434;9.116;2023-11-18T06:26:07;4.50;;;1.98;;
59970;SDS011;45825;45.434;9.116;2023-11-18T06:28:35;6.65;;;2.15;;
59970;SDS011;45825;45.434;9.116;2023-11-18T06:31:01;8.05;;;2.13;;
59970;SDS011;45825;45.434;9.116;2023-11-18T06:33:26;5.25;;;1.92;;
59970;SDS011;45825;45.434;9.116;2023-11-18T06:35:53;5.68;;;2.15;;
59970;SDS011;45825;45.434;9.116;2023-11-18T06:38:21;5.93;;;2.17;;
59970;SDS011;45825;45.434;9.116;2023-11-18T06:40:47;6.50;;;2.10;;
59970;SDS011;45825;45.434;9.116;2023-11-18T06:43:17;8.82;;;2.13;;
59970;SDS011;45825;45.434;9.116;2023-11-18T06:45:44;4.80;;;2.42;;
59970;SDS011;45825;45.434;9.116;2023-11-18T06:48:09;4.35;;;1.75;;
59970;SDS011;45825;45.434;9.116;2023-11-18T06:50:34;3.97;;;2.00;;
59970;SDS011;45825;45.434;9.116;2023-11-18T06:53:00;3.83;;;1.80;;
59970;SDS011;45825;45.434;9.116;2023-11-18T06:55:25;7.28;;;2.33;;
59970;SDS011;45825;45.434;9.116;2023-11-18T06:57:51;4.22;;;2.05;;
59970;SDS011;45825;45.434;9.116;2023-11-18T07:00:19;7.28;;;2.55;;
59970;SDS011;45825;45.434;9.116;2023-11-18T07:02:46;7.85;;;2.58;;
59970;SDS011;45825;45.434;9.116;2023-11-18T07:05:12;5.30;;;2.38;;
59970;SDS011;45825;45.434;9.116;2023-11-18T07:07:37;5.70;;;2.20;;
59970;SDS011;45825;45.434;9.116;2023-11-18T07:10:03;18.30;;;3.70;;
59970;SDS011;45825;45.434;9.116;2023-11-18T07:12:31;9.82;;;2.80;;
59970;SDS011;45825;45.434;9.116;2023-11-18T07:14:58;6.30;;;2.60;;
59970;SDS011;45825;45.434;9.116;2023-11-18T07:17:26;7.30;;;2.40;;
59970;SDS011;45825;45.434;9.116;2023-11-18T07:19:51;7.68;;;2.60;;
59970;SDS011;45825;45.434;9.116;2023-11-18T07:22:16;5.63;;;2.42;;
59970;SDS011;45825;45.434;9.116;2023-11-18T07:24:41;5.63;;;2.10;;
59970;SDS011;45825;45.434;9.116;2023-11-18T07:27:08;8.02;;;2.40;;
59970;SDS011;45825;45.434;9.116;2023-11-18T07:29:36;4.93;;;2.13;;
59970;SDS011;45825;45.434;9.116;2023-11-18T07:32:01;5.68;;;2.35;;
59970;SDS011;45825;45.434;9.116;2023-11-18T07:34:30;6.18;;;2.10;;
59970;SDS011;45825;45.434;9.116;2023-11-18T07:36:57;7.15;;;2.03;;
59970;SDS011;45825;45.434;9.116;2023-11-18T07:39:23;4.82;;;2.10;;
59970;SDS011;45825;45.434;9.116;2023-11-18T07:41:55;5.45;;;2.25;;
59970;SDS011;45825;45.434;9.116;2023-11-18T07:44:22;5.65;;;1.92;;
59970;SDS011;45825;45.434;9.116;2023-11-18T07:46:48;5.07;;;2.13;;
59970;SDS011;45825;45.434;9.116;2023-11-18T07:49:14;12.40;;;2.40;;
59970;SDS011;45825;45.434;9.116;2023-11-18T07:51:41;6.78;;;2.38;;
59970;SDS011;45825;45.434;9.116;2023-11-18T07:54:07;4.25;;;2.03;;
59970;SDS011;45825;45.434;9.116;2023-11-18T07:56:32;5.18;;;2.40;;
59970;SDS011;45825;45.434;9.116;2023-11-18T07:58:57;5.40;;;2.28;;
59970;SDS011;45825;45.434;9.116;2023-11-18T08:01:23;6.43;;;2.63;;
59970;SDS011;45825;45.434;9.116;2023-11-18T08:03:48;16.92;;;3.40;;
59970;SDS011;45825;45.434;9.116;2023-11-18T08:06:15;5.40;;;2.45;;
59970;SDS011;45825;45.434;9.116;2023-11-18T08:08:42;13.60;;;3.60;;
59970;SDS011;45825;45.434;9.116;2023-11-18T08:11:10;7.43;;;3.30;;
59970;SDS011;45825;45.434;9.116;2023-11-18T08:13:37;9.20;;;3.60;;
59970;SDS011;45825;45.434;9.116;2023-11-18T08:16:02;7.80;;;3.22;;
59970;SDS011;45825;45.434;9.116;2023-11-18T08:18:27;7.18;;;3.22;;
59970;SDS011;45825;45.434;9.116;2023-11-18T08:20:56;6.55;;;2.80;;
59970;SDS011;45825;45.434;9.116;2023-11-18T08:23:22;11.43;;;2.95;;
59970;SDS011;45825;45.434;9.116;2023-11-18T08:25:47;8.77;;;2.90;;
59970;SDS011;45825;45.434;9.116;2023-11-18T08:28:13;5.45;;;2.60;;
59970;SDS011;45825;45.434;9.116;2023-11-18T08:30:39;9.50;;;2.90;;
59970;SDS011;45825;45.434;9.116;2023-11-18T08:33:04;6.05;;;2.95;;
59970;SDS011;45825;45.434;9.116;2023-11-18T08:35:33;6.07;;;2.55;;
59970;SDS011;45825;45.434;9.116;2023-11-18T08:37:59;7.95;;;3.03;;
59970;SDS011;45825;45.434;9.116;2023-11-18T08:40:25;6.68;;;2.85;;
59970;SDS011;45825;45.434;9.116;2023-11-18T08:42:51;6.47;;;3.13;;
59970;SDS011;45825;45.434;9.116;2023-11-18T08:47:47;7.28;;;3.35;;
59970;SDS011;45825;45.434;9.116;2023-11-18T08:50:16;9.32;;;2.92;;
59970;SDS011;45825;45.434;9.116;2023-11-18T08:52:45;6.32;;;2.60;;
59970;SDS011;45825;45.434;9.116;2023-11-18T08:55:14;10.90;;;2.95;;
59970;SDS011;45825;45.434;9.116;2023-11-18T08:57:46;5.93;;;2.80;;
59970;SDS011;45825;45.434;9.116;2023-11-18T09:00:27;6.60;;;2.55;;
59970;SDS011;45825;45.434;9.116;2023-11-18T09:08:21;6.82;;;2.50;;
59970;SDS011;45825;45.434;9.116;2023-11-18T09:11:00;4.90;;;2.45;;
59970;SDS011;45825;45.434;9.116;2023-11-18T09:13:30;6.15;;;2.40;;
59970;SDS011;45825;45.434;9.116;2023-11-18T09:15:59;6.03;;;2.60;;
59970;SDS011;45825;45.434;9.116;2023-11-18T09:18:26;13.77;;;3.70;;
59970;SDS011;45825;45.434;9.116;2023-11-18T09:20:52;5.07;;;2.47;;
59970;SDS011;45825;45.434;9.116;2023-11-18T09:23:20;5.43;;;2.53;;
59970;SDS011;45825;45.434;9.116;2023-11-18T09:25:48;5.90;;;2.85;;
59970;SDS011;45825;45.434;9.116;2023-11-18T09:28:14;6.40;;;3.15;;
59970;SDS011;45825;45.434;9.116;2023-11-18T09:30:47;6.88;;;2.75;;
59970;SDS011;45825;45.434;9.116;2023-11-18T09:33:24;6.40;;;2.67;;
59970;SDS011;45825;45.434;9.116;2023-11-18T09:35:51;6.43;;;2.72;;
59970;SDS011;45825;45.434;9.116;2023-11-18T09:38:20;8.02;;;2.70;;
59970;SDS011;45825;45.434;9.116;2023-11-18T09:40:47;7.55;;;2.92;;
59970;SDS011;45825;45.434;9.116;2023-11-18T09:43:14;5.68;;;2.50;;
59970;SDS011;45825;45.434;9.116;2023-11-18T09:45:43;9.73;;;2.60;;
59970;SDS011;45825;45.434;9.116;2023-11-18T09:48:10;7.15;;;2.80;;
59970;SDS011;45825;45.434;9.116;2023-11-18T09:50:38;4.90;;;2.50;;
59970;SDS011;45825;45.434;9.116;2023-11-18T09:53:07;7.13;;;2.80;;
59970;SDS011;45825;45.434;9.116;2023-11-18T09:55:38;6.00;;;2.30;;
59970;SDS011;45825;45.434;9.116;2023-11-18T09:58:12;7.20;;;2.60;;
59970;SDS011;45825;45.434;9.116;2023-11-18T10:00:42;7.70;;;3.10;;
59970;SDS011;45825;45.434;9.116;2023-11-18T10:03:09;6.38;;;2.70;;
59970;SDS011;45825;45.434;9.116;2023-11-18T10:05:37;5.15;;;2.50;;
59970;SDS011;45825;45.434;9.116;2023-11-18T10:08:05;8.15;;;2.72;;
59970;SDS011;45825;45.434;9.116;2023-11-18T10:10:31;5.78;;;2.53;;
59970;SDS011;45825;45.434;9.116;2023-11-18T10:13:01;5.45;;;2.50;;
59970;SDS011;45825;45.434;9.116;2023-11-18T10:15:29;5.88;;;2.38;;
59970;SDS011;45825;45.434;9.116;2023-11-18T10:17:56;7.30;;;2.60;;
59970;SDS011;45825;45.434;9.116;2023-11-18T10:23:10;7.13;;;3.78;;
59970;SDS011;45825;45.434;9.116;2023-11-18T10:25:36;7.55;;;3.05;;
59970;SDS011;45825;45.434;9.116;2023-11-18T10:28:06;6.88;;;3.90;;
59970;SDS011;45825;45.434;9.116;2023-11-18T10:30:42;7.15;;;3.85;;
59970;SDS011;45825;45.434;9.116;2023-11-18T10:33:08;6.95;;;3.33;;
59970;SDS011;45825;45.434;9.116;2023-11-18T10:35:34;8.20;;;3.33;;
59970;SDS011;45825;45.434;9.116;2023-11-18T10:38:02;5.65;;;3.10;;
59970;SDS011;45825;45.434;9.116;2023-11-18T10:40:32;6.35;;;2.83;;
59970;SDS011;45825;45.434;9.116;2023-11-18T10:43:01;7.43;;;2.85;;
59970;SDS011;45825;45.434;9.116;2023-11-18T10:45:34;7.13;;;3.15;;
59970;SDS011;45825;45.434;9.116;2023-11-18T10:48:04;8.32;;;3.30;;
59970;SDS011;45825;45.434;9.116;2023-11-18T10:50:30;7.90;;;3.25;;
59970;SDS011;45825;45.434;9.116;2023-11-18T10:52:57;6.32;;;2.60;;
59970;SDS011;45825;45.434;9.116;2023-11-18T10:55:34;6.93;;;2.85;;
59970;SDS011;45825;45.434;9.116;2023-11-18T10:58:03;5.13;;;2.50;;
59970;SDS011;45825;45.434;9.116;2023-11-18T11:00:50;6.25;;;2.67;;
59970;SDS011;45825;45.434;9.116;2023-11-18T11:03:18;6.53;;;2.63;;
59970;SDS011;45825;45.434;9.116;2023-11-18T11:05:43;4.70;;;2.35;;
59970;SDS011;45825;45.434;9.116;2023-11-18T11:08:11;5.32;;;2.15;;
59970;SDS011;45825;45.434;9.116;2023-11-18T11:10:43;6.32;;;2.35;;
59970;SDS011;45825;45.434;9.116;2023-11-18T11:13:09;5.47;;;2.33;;
59970;SDS011;45825;45.434;9.116;2023-11-18T11:15:42;3.40;;;2.03;;
59970;SDS011;45825;45.434;9.116;2023-11-18T11:18:20;6.97;;;2.25;;
59970;SDS011;45825;45.434;9.116;2023-11-18T11:23:42;4.25;;;2.05;;
59970;SDS011;45825;45.434;9.116;2023-11-18T11:26:28;6.57;;;2.10;;
59970;SDS011;45825;45.434;9.116;2023-11-18T11:31:42;5.28;;;2.38;;
59970;SDS011;45825;45.434;9.116;2023-11-18T11:34:20;6.75;;;2.20;;
59970;SDS011;45825;45.434;9.116;2023-11-18T11:36:48;2.47;;;1.60;;
59970;SDS011;45825;45.434;9.116;2023-11-18T11:39:16;3.50;;;1.70;;
59970;SDS011;45825;45.434;9.116;2023-11-18T11:41:45;4.95;;;1.80;;
59970;SDS011;45825;45.434;9.116;2023-11-18T11:44:15;2.75;;;1.55;;
59970;SDS011;45825;45.434;9.116;2023-11-18T11:46:40;4.40;;;1.90;;
59970;SDS011;45825;45.434;9.116;2023-11-18T11:49:07;3.65;;;1.30;;
59970;SDS011;45825;45.434;9.116;2023-11-18T11:51:46;3.42;;;1.60;;
59970;SDS011;45825;45.434;9.116;2023-11-18T11:56:55;2.75;;;1.40;;
59970;SDS011;45825;45.434;9.116;2023-11-18T12:02:13;3.15;;;1.38;;
59970;SDS011;45825;45.434;9.116;2023-11-18T12:04:43;3.70;;;1.50;;
59970;SDS011;45825;45.434;9.116;2023-11-18T12:07:09;2.80;;;1.45;;
59970;SDS011;45825;45.434;9.116;2023-11-18T12:09:35;2.92;;;1.23;;
59970;SDS011;45825;45.434;9.116;2023-11-18T12:12:14;2.78;;;1.50;;
59970;SDS011;45825;45.434;9.116;2023-11-18T12:14:50;2.97;;;1.30;;
59970;SDS011;45825;45.434;9.116;2023-11-18T12:17:17;2.50;;;1.20;;
59970;SDS011;45825;45.434;9.116;2023-11-18T12:19:49;4.45;;;1.45;;
59970;SDS011;45825;45.434;9.116;2023-11-18T12:22:23;2.47;;;1.23;;
59970;SDS011;45825;45.434;9.116;2023-11-18T12:35:29;2.70;;;1.27;;
59970;SDS011;45825;45.434;9.116;2023-11-18T12:40:53;3.17;;;1.20;;
59970;SDS011;45825;45.434;9.116;2023-11-18T12:43:56;4.78;;;1.20;;
59970;SDS011;45825;45.434;9.116;2023-11-18T12:49:20;3.35;;;1.13;;
59970;SDS011;45825;45.434;9.116;2023-11-18T12:51:53;3.20;;;1.05;;
59970;SDS011;45825;45.434;9.116;2023-11-18T12:54:24;2.67;;;1.10;;
59970;SDS011;45825;45.434;9.116;2023-11-18T12:56:52;2.65;;;0.90;;
59970;SDS011;45825;45.434;9.116;2023-11-18T12:59:20;1.67;;;1.00;;
59970;SDS011;45825;45.434;9.116;2023-11-18T13:01:52;1.83;;;0.80;;
59970;SDS011;45825;45.434;9.116;2023-11-18T13:04:24;2.60;;;0.90;;
59970;SDS011;45825;45.434;9.116;2023-11-18T13:06:50;2.53;;;0.90;;
59970;SDS011;45825;45.434;9.116;2023-11-18T13:09:16;4.20;;;1.00;;
59970;SDS011;45825;45.434;9.116;2023-11-18T13:11:55;2.47;;;0.93;;
59970;SDS011;45825;45.434;9.116;2023-11-18T13:14:23;2.45;;;1.10;;
59970;SDS011;45825;45.434;9.116;2023-11-18T13:16:50;3.88;;;1.10;;
59970;SDS011;45825;45.434;9.116;2023-11-18T13:19:28;4.32;;;1.10;;
59970;SDS011;45825;45.434;9.116;2023-11-18T13:21:58;3.75;;;1.23;;
59970;SDS011;45825;45.434;9.116;2023-11-18T13:24:24;3.10;;;1.00;;
59970;SDS011;45825;45.434;9.116;2023-11-18T13:26:51;1.40;;;0.80;;
59970;SDS011;45825;45.434;9.116;2023-11-18T13:29:19;1.55;;;1.00;;
59970;SDS011;45825;45.434;9.116;2023-11-18T13:31:46;3.05;;;1.27;;
59970;SDS011;45825;45.434;9.116;2023-11-18T13:34:12;2.58;;;1.20;;
59970;SDS011;45825;45.434;9.116;2023-11-18T13:36:39;3.53;;;1.35;;
59970;SDS011;45825;45.434;9.116;2023-11-18T13:39:04;3.10;;;1.20;;
59970;SDS011;45825;45.434;9.116;2023-11-18T13:41:32;3.95;;;1.20;;
59970;SDS011;45825;45.434;9.116;2023-11-18T13:43:57;3.30;;;1.27;;
59970;SDS011;45825;45.434;9.116;2023-11-18T13:46:23;2.95;;;1.00;;
59970;SDS011;45825;45.434;9.116;2023-11-18T13:48:49;3.97;;;1.23;;
59970;SDS011;45825;45.434;9.116;2023-11-18T13:51:16;2.97;;;1.20;;
59970;SDS011;45825;45.434;9.116;2023-11-18T13:53:44;4.03;;;1.20;;
59970;SDS011;45825;45.434;9.116;2023-11-18T13:56:11;2.80;;;1.10;;
59970;SDS011;45825;45.434;9.116;2023-11-18T13:58:37;3.10;;;1.02;;
59970;SDS011;45825;45.434;9.116;2023-11-18T14:01:06;2.08;;;1.20;;
59970;SDS011;45825;45.434;9.116;2023-11-18T14:03:35;3.43;;;1.30;;
59970;SDS011;45825;45.434;9.116;2023-11-18T14:06:02;2.47;;;1.17;;
59970;SDS011;45825;45.434;9.116;2023-11-18T14:08:30;10.98;;;7.00;;
59970;SDS011;45825;45.434;9.116;2023-11-18T14:10:55;3.70;;;1.42;;
59970;SDS011;45825;45.434;9.116;2023-11-18T14:13:21;4.68;;;1.13;;
59970;SDS011;45825;45.434;9.116;2023-11-18T14:18:16;2.38;;;1.20;;
59970;SDS011;45825;45.434;9.116;2023-11-18T14:20:42;2.03;;;1.10;;
59970;SDS011;45825;45.434;9.116;2023-11-18T14:23:07;3.22;;;1.10;;
59970;SDS011;45825;45.434;9.116;2023-11-18T14:25:33;3.00;;;1.42;;
59970;SDS011;45825;45.434;9.116;2023-11-18T14:27:59;2.60;;;1.30;;
59970;SDS011;45825;45.434;9.116;2023-11-18T14:30:25;2.53;;;1.40;;
59970;SDS011;45825;45.434;9.116;2023-11-18T14:32:53;3.13;;;1.30;;
59970;SDS011;45825;45.434;9.116;2023-11-18T14:35:20;3.40;;;1.30;;
59970;SDS011;45825;45.434;9.116;2023-11-18T14:37:45;5.10;;;1.55;;
59970;SDS011;45825;45.434;9.116;2023-11-18T14:40:12;4.38;;;1.65;;
59970;SDS011;45825;45.434;9.116;2023-11-18T14:42:47;5.57;;;1.67;;
59970;SDS011;45825;45.434;9.116;2023-11-18T14:45:13;3.13;;;1.60;;
59970;SDS011;45825;45.434;9.116;2023-11-18T14:47:39;4.22;;;1.80;;
59970;SDS011;45825;45.434;9.116;2023-11-18T14:50:05;4.13;;;1.83;;
59970;SDS011;45825;45.434;9.116;2023-11-18T14:52:40;4.05;;;2.00;;
59970;SDS011;45825;45.434;9.116;2023-11-18T14:55:06;6.63;;;1.80;;
59970;SDS011;45825;45.434;9.116;2023-11-18T14:57:37;8.00;;;2.00;;
59970;SDS011;45825;45.434;9.116;2023-11-18T15:00:06;4.53;;;2.10;;
59970;SDS011;45825;45.434;9.116;2023-11-18T15:02:36;5.70;;;1.85;;
59970;SDS011;45825;45.434;9.116;2023-11-18T15:05:01;4.40;;;1.88;;
59970;SDS011;45825;45.434;9.116;2023-11-18T15:07:29;3.60;;;1.65;;
59970;SDS011;45825;45.434;9.116;2023-11-18T15:09:55;5.05;;;1.80;;
59970;SDS011;45825;45.434;9.116;2023-11-18T15:12:20;4.50;;;1.80;;
59970;SDS011;45825;45.434;9.116;2023-11-18T15:14:46;4.25;;;2.00;;
59970;SDS011;45825;45.434;9.116;2023-11-18T15:17:11;4.38;;;1.75;;
59970;SDS011;45825;45.434;9.116;2023-11-18T15:19:38;3.30;;;1.75;;
59970;SDS011;45825;45.434;9.116;2023-11-18T15:22:04;4.05;;;1.90;;
59970;SDS011;45825;45.434;9.116;2023-11-18T15:24:29;3.88;;;1.88;;
59970;SDS011;45825;45.434;9.116;2023-11-18T15:26:55;5.47;;;1.60;;
59970;SDS011;45825;45.434;9.116;2023-11-18T15:29:20;7.00;;;2.10;;
59970;SDS011;45825;45.434;9.116;2023-11-18T15:31:46;4.07;;;1.95;;
59970;SDS011;45825;45.434;9.116;2023-11-18T15:34:11;4.45;;;2.17;;